Hudson Bend, Texas
Current Conditions -  °F | °C
As of 2:55 AM on Thursday 23 Oct 2014 (Local Time) from KRYW Reporting Station
Scattered Clouds Scattered Clouds  
Wind Chill: 69°   Ceiling: Unl
Heat Index: 69°   Visibility: 10mi
Dew Point: 57°   Wind: 6mph
Humidity: 66%   Direction: 150°SSE
Pressure: 30.13"   Gusts: NA
Location:  30.3763°N, 97.9464°W
Report Text: KRYW 230755Z AUTO 15005KT 10SM SCT120 21/14 A3013 RMK AO2 T02060141
Loading
Personal Weather Stations






























Interactive Weather Map
Tropical Storm Tracking
New forecast layout! Learn more

10-Day Weather Forecast

Advertisements
Track Severe Weather on mobile